createdAt,value
2018-03-15T00:01:06.328Z,1009.21
2018-03-15T00:02:15.305Z,1009.27
2018-03-15T00:03:24.133Z,1009.22
2018-03-15T00:04:32.964Z,1009.26
2018-03-15T00:05:41.787Z,1009.22
2018-03-15T00:06:50.617Z,1009.21
2018-03-15T00:07:59.597Z,1009.22
2018-03-15T00:09:08.424Z,1009.2
2018-03-15T00:10:17.255Z,1009.22
2018-03-15T00:11:26.361Z,1009.2
2018-03-15T00:12:35.188Z,1009.15
2018-03-15T00:13:44.117Z,1009.14
2018-03-15T00:14:52.945Z,1009.15
2018-03-15T00:16:01.776Z,1009.13
2018-03-15T00:17:10.600Z,1009.13
2018-03-15T00:18:19.429Z,1009.09
2018-03-15T00:19:28.258Z,1009.08
2018-03-15T00:20:37.088Z,1009.06
2018-03-15T00:21:45.913Z,1009.05
2018-03-15T00:22:54.747Z,1009.08
2018-03-15T00:24:03.565Z,1009.05
2018-03-15T00:25:12.547Z,1009.05
2018-03-15T00:26:21.372Z,1009.06
2018-03-15T00:27:30.199Z,1009.05
2018-03-15T00:28:39.026Z,1009.01
2018-03-15T00:29:47.854Z,1009.08
2018-03-15T00:30:56.830Z,1009.06
2018-03-15T00:32:05.952Z,1009.04
2018-03-15T00:33:14.778Z,1009.06
2018-03-15T00:34:23.606Z,1009.06
2018-03-15T00:35:32.438Z,1009
2018-03-15T00:36:41.593Z,1008.96
2018-03-15T00:37:50.424Z,1008.92
2018-03-15T00:38:59.250Z,1008.89
2018-03-15T00:40:08.077Z,1008.92
2018-03-15T00:41:16.901Z,1008.93
2018-03-15T00:42:25.728Z,1008.94
2018-03-15T00:43:34.555Z,1008.95
2018-03-15T00:44:43.381Z,1008.93
2018-03-15T00:45:52.208Z,1008.94
2018-03-15T00:47:01.033Z,1008.88
2018-03-15T00:48:10.162Z,1008.92
2018-03-15T00:49:19.267Z,1008.91
2018-03-15T00:50:28.094Z,1008.86
2018-03-15T00:51:36.924Z,1008.85
2018-03-15T00:52:45.751Z,1008.8
2018-03-15T00:53:54.678Z,1008.8
2018-03-15T00:55:03.507Z,1008.73
2018-03-15T00:56:12.336Z,1008.73
2018-03-15T00:57:21.163Z,1008.73
2018-03-15T00:58:29.992Z,1008.76
2018-03-15T00:59:38.821Z,1008.73
2018-03-15T01:00:47.647Z,1008.74
2018-03-15T01:01:56.748Z,1008.76
2018-03-15T01:03:05.575Z,1008.75
2018-03-15T01:04:14.400Z,1008.7
2018-03-15T01:05:23.279Z,1008.75
2018-03-15T01:06:32.107Z,1008.69
2018-03-15T01:07:40.937Z,1008.69
2018-03-15T01:08:50.041Z,1008.64
2018-03-15T01:09:58.869Z,1008.69
2018-03-15T01:11:07.847Z,1008.61
2018-03-15T01:12:16.675Z,1008.64
2018-03-15T01:13:25.500Z,1008.64
2018-03-15T01:14:34.327Z,1008.62
2018-03-15T01:15:43.432Z,1008.61
2018-03-15T01:16:52.411Z,1008.61
2018-03-15T01:18:01.517Z,1008.59
2018-03-15T01:19:10.344Z,1008.59
2018-03-15T01:20:19.171Z,1008.58
2018-03-15T01:21:28.006Z,1008.59
2018-03-15T01:22:36.830Z,1008.56
2018-03-15T01:23:45.660Z,1008.57
2018-03-15T01:24:54.487Z,1008.5
2018-03-15T01:26:03.315Z,1008.46
2018-03-15T01:27:12.142Z,1008.46
2018-03-15T01:28:20.968Z,1008.43
2018-03-15T01:29:29.795Z,1008.4
2018-03-15T01:30:38.622Z,1008.35
2018-03-15T01:31:47.448Z,1008.38
2018-03-15T01:32:56.273Z,1008.32
2018-03-15T01:34:05.102Z,1008.34
2018-03-15T01:35:13.930Z,1008.3
2018-03-15T01:36:23.033Z,1008.27
2018-03-15T01:37:31.858Z,1008.26
2018-03-15T01:38:40.686Z,1008.25
2018-03-15T01:39:49.512Z,1008.18
2018-03-15T01:40:58.339Z,1008.18
2018-03-15T01:42:07.166Z,1008.14
2018-03-15T01:43:15.990Z,1008.1
2018-03-15T01:44:24.819Z,1008.02
2018-03-15T01:45:33.644Z,1008.02
2018-03-15T01:46:42.470Z,1007.98
2018-03-15T01:47:51.297Z,1007.94
2018-03-15T01:49:00.125Z,1007.91
2018-03-15T01:50:08.953Z,1007.98
2018-03-15T01:51:17.781Z,1007.96
2018-03-15T01:52:26.614Z,1007.94
2018-03-15T01:53:35.433Z,1007.91
2018-03-15T01:54:44.261Z,1007.93
2018-03-15T01:55:53.087Z,1007.94
2018-03-15T01:57:02.487Z,1007.98
2018-03-15T01:58:11.314Z,1007.96
2018-03-15T01:59:20.139Z,1007.96
2018-03-15T02:00:28.966Z,1007.91
2018-03-15T02:01:38.079Z,1007.95
2018-03-15T02:02:47.206Z,1007.96
2018-03-15T02:03:56.032Z,1007.91
2018-03-15T02:05:04.862Z,1007.92
2018-03-15T02:06:13.688Z,1007.95
2018-03-15T02:07:22.515Z,1007.9
2018-03-15T02:08:31.442Z,1007.87
2018-03-15T02:09:40.541Z,1007.86
2018-03-15T02:10:49.371Z,1007.83
2018-03-15T02:11:58.204Z,1007.86
2018-03-15T02:13:07.309Z,1007.78
2018-03-15T02:14:16.134Z,1007.83
2018-03-15T02:15:24.960Z,1007.81
2018-03-15T02:16:33.790Z,1007.8
2018-03-15T02:17:42.889Z,1007.76
2018-03-15T02:18:51.717Z,1007.75
2018-03-15T02:20:00.647Z,1007.72
2018-03-15T02:21:09.475Z,1007.72
2018-03-15T02:22:18.574Z,1007.74
2018-03-15T02:23:27.399Z,1007.72
2018-03-15T02:24:36.226Z,1007.7
2018-03-15T02:25:45.053Z,1007.67
2018-03-15T02:26:53.878Z,1007.64
2018-03-15T02:28:02.708Z,1007.58
2018-03-15T02:29:11.812Z,1007.55
2018-03-15T02:30:20.917Z,1007.5
2018-03-15T02:31:29.898Z,1007.54
2018-03-15T02:32:38.725Z,1007.55
2018-03-15T02:33:47.556Z,1007.55
2018-03-15T02:34:56.380Z,1007.5
2018-03-15T02:36:05.206Z,1007.47
2018-03-15T02:37:14.035Z,1007.47
2018-03-15T02:38:23.140Z,1007.39
2018-03-15T02:39:31.971Z,1007.41
2018-03-15T02:40:41.073Z,1007.38
2018-03-15T02:41:49.899Z,1007.34
2018-03-15T02:42:58.730Z,1007.33
2018-03-15T02:44:07.844Z,1007.29
2018-03-15T02:45:16.661Z,1007.26
2018-03-15T02:46:25.487Z,1007.22
2018-03-15T02:47:34.596Z,1007.27
2018-03-15T02:48:43.525Z,1007.24
2018-03-15T02:49:52.363Z,1007.2
2018-03-15T02:51:01.178Z,1007.23
2018-03-15T02:52:10.007Z,1007.16
2018-03-15T02:53:18.833Z,1007.17
2018-03-15T02:54:27.810Z,1007.16
2018-03-15T02:55:36.641Z,1007.2
2018-03-15T02:56:45.743Z,1007.24
2018-03-15T02:57:54.568Z,1007.23
2018-03-15T02:59:03.401Z,1007.21
2018-03-15T03:00:12.541Z,1007.17
2018-03-15T03:01:21.355Z,1007.17
2018-03-15T03:02:30.189Z,1007.16
2018-03-15T03:03:39.016Z,1007.2
2018-03-15T03:04:47.846Z,1007.14
2018-03-15T03:05:57.098Z,1007.1
2018-03-15T03:07:05.931Z,1007.09
2018-03-15T03:08:14.761Z,1007.04
2018-03-15T03:09:23.589Z,1007.09
2018-03-15T03:10:32.416Z,1007.06
2018-03-15T03:11:41.243Z,1006.99
2018-03-15T03:12:50.069Z,1007.01
2018-03-15T03:13:58.900Z,1007
2018-03-15T03:15:07.731Z,1007.05
2018-03-15T03:16:16.559Z,1007.09
2018-03-15T03:17:25.384Z,1007.06
2018-03-15T03:18:34.488Z,1007.06
2018-03-15T03:19:43.315Z,1007.03
2018-03-15T03:20:52.146Z,1007.1
2018-03-15T03:22:00.971Z,1007.07
2018-03-15T03:23:09.947Z,1007.05
2018-03-15T03:24:18.772Z,1007.06
2018-03-15T03:25:27.600Z,1007.06
2018-03-15T03:26:36.705Z,1007.14
2018-03-15T03:27:45.536Z,1007.1
2018-03-15T03:28:54.510Z,1007.08
2018-03-15T03:30:03.336Z,1007.11
2018-03-15T03:31:12.168Z,1007.11
2018-03-15T03:32:21.000Z,1007.06
2018-03-15T03:33:29.829Z,1007.14
2018-03-15T03:34:38.932Z,1007.17
2018-03-15T03:35:47.757Z,1007.14
2018-03-15T03:36:56.582Z,1007.17
2018-03-15T03:38:05.417Z,1007.22
2018-03-15T03:39:14.243Z,1007.16
2018-03-15T03:40:23.348Z,1007.27
2018-03-15T03:41:32.175Z,1007.28
2018-03-15T03:42:41.003Z,1007.31
2018-03-15T03:43:49.828Z,1007.28
2018-03-15T03:44:58.930Z,1007.27
2018-03-15T03:46:08.158Z,1007.4
2018-03-15T03:47:16.986Z,1007.35
2018-03-15T03:48:25.813Z,1007.37
2018-03-15T03:49:34.916Z,1007.41
2018-03-15T03:50:43.746Z,1007.42
2018-03-15T03:51:52.948Z,1007.49
2018-03-15T03:53:02.046Z,1007.4
2018-03-15T03:54:10.872Z,1007.43
2018-03-15T03:55:19.799Z,1007.44
2018-03-15T03:56:28.626Z,1007.43
2018-03-15T03:57:37.451Z,1007.39
2018-03-15T03:58:46.279Z,1007.45
2018-03-15T03:59:55.104Z,1007.46
2018-03-15T04:01:04.210Z,1007.44
2018-03-15T04:02:13.037Z,1007.4
2018-03-15T04:03:21.982Z,1007.46
2018-03-15T04:04:30.791Z,1007.44
2018-03-15T04:05:39.894Z,1007.51
2018-03-15T04:06:48.719Z,1007.51
2018-03-15T04:07:57.543Z,1007.54
2018-03-15T04:09:06.370Z,1007.56
2018-03-15T04:10:15.473Z,1007.52
2018-03-15T04:11:24.307Z,1007.59
2018-03-15T04:12:33.132Z,1007.58
2018-03-15T04:13:42.231Z,1007.58
2018-03-15T04:14:51.109Z,1007.61
2018-03-15T04:16:00.209Z,1007.59
2018-03-15T04:17:09.308Z,1007.64
2018-03-15T04:18:18.137Z,1007.64
2018-03-15T04:19:26.962Z,1007.61
2018-03-15T04:20:35.790Z,1007.63
2018-03-15T04:21:44.617Z,1007.54
2018-03-15T04:22:53.446Z,1007.55
2018-03-15T04:24:02.325Z,1007.58
2018-03-15T04:25:11.148Z,1007.59
2018-03-15T04:26:20.351Z,1007.62
2018-03-15T04:27:29.180Z,1007.54
2018-03-15T04:28:38.006Z,1007.6
2018-03-15T04:29:47.113Z,1007.63
2018-03-15T04:30:55.943Z,1007.6
2018-03-15T04:32:04.769Z,1007.61
2018-03-15T04:33:13.597Z,1007.59
2018-03-15T04:34:22.696Z,1007.59
2018-03-15T04:35:31.524Z,1007.56
2018-03-15T04:36:40.349Z,1007.56
2018-03-15T04:37:49.175Z,1007.56
2018-03-15T04:38:58.003Z,1007.58
2018-03-15T04:40:06.833Z,1007.54
2018-03-15T04:41:15.655Z,1007.6
2018-03-15T04:42:24.757Z,1007.53
2018-03-15T04:43:33.865Z,1007.59
2018-03-15T04:44:42.691Z,1007.62
2018-03-15T04:45:51.517Z,1007.58
2018-03-15T04:47:00.350Z,1007.52
2018-03-15T04:48:09.738Z,1007.52
2018-03-15T04:49:18.663Z,1007.57
2018-03-15T04:50:27.490Z,1007.52
2018-03-15T04:51:36.316Z,1007.62
2018-03-15T04:52:45.141Z,1007.53
2018-03-15T04:53:53.970Z,1007.54
2018-03-15T04:55:03.072Z,1007.52
2018-03-15T04:56:11.900Z,1007.47
2018-03-15T04:57:20.725Z,1007.52
2018-03-15T04:58:29.589Z,1007.41
2018-03-15T04:59:38.378Z,1007.54
2018-03-15T05:00:47.203Z,1007.48
2018-03-15T05:01:56.030Z,1007.46
2018-03-15T05:03:04.856Z,1007.38
2018-03-15T05:04:13.686Z,1007.44
2018-03-15T05:05:22.513Z,1007.45
2018-03-15T05:06:31.445Z,1007.39
2018-03-15T05:07:40.270Z,1007.38
2018-03-15T05:08:49.096Z,1007.38
2018-03-15T05:09:57.921Z,1007.37
2018-03-15T05:11:06.748Z,1007.34
2018-03-15T05:12:15.722Z,1007.29
2018-03-15T05:13:24.548Z,1007.34
2018-03-15T05:14:33.377Z,1007.31
2018-03-15T05:15:42.201Z,1007.36
2018-03-15T05:16:51.028Z,1007.34
2018-03-15T05:17:59.905Z,1007.38
2018-03-15T05:19:08.732Z,1007.4
2018-03-15T05:20:17.556Z,1007.36
2018-03-15T05:21:26.385Z,1007.42
2018-03-15T05:22:35.212Z,1007.38
2018-03-15T05:23:44.344Z,1007.36
2018-03-15T05:24:53.171Z,1007.38
2018-03-15T05:26:02.285Z,1007.4
2018-03-15T05:27:11.113Z,1007.38
2018-03-15T05:28:19.991Z,1007.36
2018-03-15T05:29:28.968Z,1007.4
2018-03-15T05:30:37.801Z,1007.36
2018-03-15T05:31:46.626Z,1007.38
2018-03-15T05:32:55.732Z,1007.36
2018-03-15T05:34:04.556Z,1007.36
2018-03-15T05:35:13.485Z,1007.4
2018-03-15T05:36:22.313Z,1007.43
2018-03-15T05:37:31.413Z,1007.43
2018-03-15T05:38:40.238Z,1007.4
2018-03-15T05:39:49.066Z,1007.36
2018-03-15T05:40:57.943Z,1007.39
2018-03-15T05:42:06.771Z,1007.41
2018-03-15T05:43:15.597Z,1007.4
2018-03-15T05:44:24.421Z,1007.4
2018-03-15T05:45:33.255Z,1007.44
2018-03-15T05:46:42.079Z,1007.46
2018-03-15T05:47:50.903Z,1007.49
2018-03-15T05:48:59.729Z,1007.5
2018-03-15T05:50:09.115Z,1007.5
2018-03-15T05:51:17.942Z,1007.44
2018-03-15T05:52:27.169Z,1007.45
2018-03-15T05:53:35.996Z,1007.36
2018-03-15T05:54:45.098Z,1007.42
2018-03-15T05:55:53.925Z,1007.37
2018-03-15T05:57:03.034Z,1007.39
2018-03-15T05:58:11.962Z,1007.37
2018-03-15T05:59:21.068Z,1007.41
2018-03-15T06:00:29.896Z,1007.39
2018-03-15T06:01:38.721Z,1007.34
2018-03-15T06:02:47.825Z,1007.38
2018-03-15T06:03:56.655Z,1007.31
2018-03-15T06:05:05.481Z,1007.3
2018-03-15T06:06:14.309Z,1007.29
2018-03-15T06:07:23.134Z,1007.33
2018-03-15T06:08:31.960Z,1007.33
2018-03-15T06:09:40.788Z,1007.3
2018-03-15T06:10:49.614Z,1007.28
2018-03-15T06:11:58.442Z,1007.29
2018-03-15T06:13:07.268Z,1007.33
2018-03-15T06:14:16.147Z,1007.37
2018-03-15T06:15:25.022Z,1007.3
2018-03-15T06:16:34.128Z,1007.32
2018-03-15T06:17:43.239Z,1007.28
2018-03-15T06:18:52.058Z,1007.31
2018-03-15T06:20:01.161Z,1007.29
2018-03-15T06:21:10.040Z,1007.24
2018-03-15T06:22:18.869Z,1007.24
2018-03-15T06:23:27.973Z,1007.17
2018-03-15T06:24:36.802Z,1007.19
2018-03-15T06:25:45.630Z,1007.22
2018-03-15T06:26:54.608Z,1007.18
2018-03-15T06:28:03.435Z,1007.22
2018-03-15T06:29:12.261Z,1007.16
2018-03-15T06:30:21.364Z,1007.11
2018-03-15T06:31:30.191Z,1007.12
2018-03-15T06:32:39.319Z,1007.05
2018-03-15T06:33:48.425Z,1007.06
2018-03-15T06:34:57.262Z,1007.03
2018-03-15T06:36:06.082Z,1007.08
2018-03-15T06:37:14.909Z,1007.18
2018-03-15T06:38:23.788Z,1007.04
2018-03-15T06:39:32.614Z,1007.12
2018-03-15T06:40:41.443Z,1007.05
2018-03-15T06:41:50.267Z,1007.06
2018-03-15T06:42:59.093Z,1007.06
2018-03-15T06:44:08.346Z,1006.97
2018-03-15T06:45:17.175Z,1006.9
2018-03-15T06:46:26.001Z,1006.96
2018-03-15T06:47:34.833Z,1006.93
2018-03-15T06:48:43.659Z,1006.91
2018-03-15T06:49:52.802Z,1006.87
2018-03-15T06:51:01.632Z,1006.79
2018-03-15T06:52:10.487Z,1006.81
2018-03-15T06:53:19.290Z,1006.79
2018-03-15T06:54:28.117Z,1006.79
2018-03-15T06:55:37.046Z,1006.72
2018-03-15T06:56:45.874Z,1006.7
2018-03-15T06:57:54.703Z,1006.74
2018-03-15T06:59:03.531Z,1006.58
2018-03-15T07:00:12.358Z,1006.66
2018-03-15T07:01:21.868Z,1006.68
2018-03-15T07:02:30.696Z,1006.65
2018-03-15T07:03:39.523Z,1006.61
2018-03-15T07:04:48.628Z,1006.58
2018-03-15T07:05:57.454Z,1006.57
2018-03-15T07:07:06.283Z,1006.61
2018-03-15T07:08:15.110Z,1006.61
2018-03-15T07:09:23.940Z,1006.54
2018-03-15T07:10:32.774Z,1006.52
2018-03-15T07:11:41.594Z,1006.52
2018-03-15T07:12:50.570Z,1006.49
2018-03-15T07:13:59.394Z,1006.49
2018-03-15T07:15:08.779Z,1006.46
2018-03-15T07:16:17.880Z,1006.42
2018-03-15T07:17:26.709Z,1006.48
2018-03-15T07:18:35.639Z,1006.44
2018-03-15T07:19:44.466Z,1006.36
2018-03-15T07:20:53.570Z,1006.4
2018-03-15T07:22:02.396Z,1006.36
2018-03-15T07:23:11.227Z,1006.3
2018-03-15T07:24:20.204Z,1006.36
2018-03-15T07:25:29.031Z,1006.37
2018-03-15T07:26:37.858Z,1006.37
2018-03-15T07:27:46.685Z,1006.34
2018-03-15T07:28:55.517Z,1006.36
2018-03-15T07:30:04.495Z,1006.36
2018-03-15T07:31:13.322Z,1006.34
2018-03-15T07:32:22.428Z,1006.34
2018-03-15T07:33:31.530Z,1006.19
2018-03-15T07:34:40.365Z,1006.28
2018-03-15T07:35:49.187Z,1006.25
2018-03-15T07:36:58.017Z,1006.31
2018-03-15T07:38:06.847Z,1006.33
2018-03-15T07:39:15.715Z,1006.27
2018-03-15T07:40:24.498Z,1006.23
2018-03-15T07:41:33.607Z,1006.26
2018-03-15T07:42:42.435Z,1006.26
2018-03-15T07:43:51.267Z,1006.29
2018-03-15T07:45:00.097Z,1006.35
2018-03-15T07:46:08.924Z,1006.25
2018-03-15T07:47:17.753Z,1006.27
2018-03-15T07:48:26.581Z,1006.39
2018-03-15T07:49:35.407Z,1006.39
2018-03-15T07:50:44.234Z,1006.49
2018-03-15T07:51:53.115Z,1006.4
2018-03-15T07:53:02.224Z,1006.39
2018-03-15T07:54:11.052Z,1006.44
2018-03-15T07:55:19.878Z,1006.43
2018-03-15T07:56:28.991Z,1006.52
2018-03-15T07:57:37.819Z,1006.43
2018-03-15T07:58:46.650Z,1006.47
2018-03-15T07:59:55.752Z,1006.4
2018-03-15T08:01:04.861Z,1006.44
2018-03-15T08:02:13.750Z,1006.34
2018-03-15T08:03:23.150Z,1006.29
2018-03-15T08:04:31.980Z,1006.3
2018-03-15T08:05:40.808Z,1006.3
2018-03-15T08:06:49.637Z,1006.32
2018-03-15T08:07:58.468Z,1006.28
2018-03-15T08:09:07.293Z,1006.33
2018-03-15T08:10:16.121Z,1006.3
2018-03-15T08:11:24.950Z,1006.22
2018-03-15T08:12:34.232Z,1006.26
2018-03-15T08:13:43.062Z,1006.18
2018-03-15T08:14:52.193Z,1006.23
2018-03-15T08:16:01.019Z,1006.15
2018-03-15T08:17:09.850Z,1006.12
2018-03-15T08:18:18.676Z,1006.09
2018-03-15T08:19:27.508Z,1006.15
2018-03-15T08:20:36.346Z,1006.12
2018-03-15T08:21:45.169Z,1006.17
2018-03-15T08:22:53.999Z,1006.05
2018-03-15T08:24:02.827Z,1006.13
2018-03-15T08:25:11.656Z,1006.12
2018-03-15T08:26:20.484Z,1006.12
2018-03-15T08:27:29.315Z,1006.14
2018-03-15T08:28:38.144Z,1006.07
2018-03-15T08:29:46.973Z,1006.07
2018-03-15T08:30:55.802Z,1006.02
2018-03-15T08:32:04.982Z,1006.05
2018-03-15T08:33:13.811Z,1006.12
2018-03-15T08:34:22.639Z,1006.02
2018-03-15T08:35:31.493Z,1006.02
2018-03-15T08:36:40.299Z,1006.18
2018-03-15T08:37:49.127Z,1006.09
2018-03-15T08:38:57.960Z,1006.12
2018-03-15T08:40:06.789Z,1006.13
2018-03-15T08:41:15.617Z,1006.17
2018-03-15T08:42:24.447Z,1006.14
2018-03-15T08:43:33.277Z,1006.17
2018-03-15T08:44:42.108Z,1006.2
2018-03-15T08:45:50.941Z,1006.1
2018-03-15T08:46:59.770Z,1006.11
2018-03-15T08:48:08.599Z,1006.13
2018-03-15T08:49:17.479Z,1006.12
2018-03-15T08:50:26.591Z,1006.07
2018-03-15T08:51:35.422Z,1006.19
2018-03-15T08:52:44.253Z,1006.08
2018-03-15T08:53:53.083Z,1006.11
2018-03-15T08:55:02.167Z,1006.1
2018-03-15T08:56:10.993Z,1006.09
2018-03-15T08:57:19.875Z,1006.14
2018-03-15T08:58:28.656Z,1006.03
2018-03-15T08:59:37.768Z,1006.13
2018-03-15T09:00:46.645Z,1006.07
2018-03-15T09:01:55.476Z,1006.08
2018-03-15T09:03:04.312Z,1006.16
2018-03-15T09:04:13.138Z,1006.13
2018-03-15T09:05:22.516Z,1006.05
2018-03-15T09:06:31.358Z,1006.16
2018-03-15T09:07:40.790Z,1006.14
2018-03-15T09:08:49.712Z,1006.07
2018-03-15T09:09:58.450Z,1006.05
2018-03-15T09:11:07.283Z,1006.07
2018-03-15T09:12:16.264Z,1006.15
2018-03-15T09:13:25.652Z,1006.02
2018-03-15T09:14:34.483Z,1005.9
2018-03-15T09:15:43.590Z,1006.02
2018-03-15T09:16:52.424Z,1005.87
2018-03-15T09:18:01.406Z,1005.9
2018-03-15T09:19:10.240Z,1005.91
2018-03-15T09:20:19.349Z,1005.77
2018-03-15T09:21:28.182Z,1005.84
2018-03-15T09:22:37.015Z,1005.85
2018-03-15T09:23:46.001Z,1005.86
2018-03-15T09:24:54.832Z,1005.82
2018-03-15T09:26:03.664Z,1005.88
2018-03-15T09:27:12.495Z,1005.88
2018-03-15T09:28:21.327Z,1005.79
2018-03-15T09:29:30.206Z,1005.79
2018-03-15T09:30:39.337Z,1005.86
2018-03-15T09:31:48.172Z,1005.82
2018-03-15T09:32:57.003Z,1005.79
2018-03-15T09:34:05.834Z,1005.83
2018-03-15T09:35:14.965Z,1005.75
2018-03-15T09:36:23.798Z,1005.75
2018-03-15T09:37:32.628Z,1005.74
2018-03-15T09:38:41.459Z,1005.84
2018-03-15T09:39:50.576Z,1005.8
2018-03-15T09:40:59.407Z,1005.79
2018-03-15T09:42:08.240Z,1005.8
2018-03-15T09:43:17.072Z,1005.73
2018-03-15T09:44:25.903Z,1005.75
2018-03-15T09:45:34.735Z,1005.73
2018-03-15T09:46:44.054Z,1005.61
2018-03-15T09:47:52.888Z,1005.62
2018-03-15T09:49:02.028Z,1005.62
2018-03-15T09:50:10.858Z,1005.62
2018-03-15T09:51:19.689Z,1005.66
2018-03-15T09:52:28.628Z,1005.62
2018-03-15T09:53:37.458Z,1005.61
2018-03-15T09:54:46.288Z,1005.63
2018-03-15T09:55:55.122Z,1005.64
2018-03-15T09:57:03.953Z,1005.66
2018-03-15T09:58:12.788Z,1005.66
2018-03-15T09:59:21.619Z,1005.82
2018-03-15T10:00:30.464Z,1005.65
2018-03-15T10:01:39.285Z,1005.74
2018-03-15T10:02:48.117Z,1005.68
2018-03-15T10:03:56.950Z,1005.64
2018-03-15T10:05:05.780Z,1005.68
2018-03-15T10:06:14.613Z,1005.57
2018-03-15T10:07:23.449Z,1005.54
2018-03-15T10:08:32.275Z,1005.45
2018-03-15T10:09:41.258Z,1005.53
2018-03-15T10:10:50.090Z,1005.46
2018-03-15T10:11:58.923Z,1005.41
2018-03-15T10:13:07.759Z,1005.47
2018-03-15T10:14:16.589Z,1005.41
2018-03-15T10:15:25.471Z,1005.45
2018-03-15T10:16:34.307Z,1005.47
2018-03-15T10:17:43.134Z,1005.48
2018-03-15T10:18:51.970Z,1005.43
2018-03-15T10:20:00.803Z,1005.52
2018-03-15T10:21:09.784Z,1005.43
2018-03-15T10:22:18.616Z,1005.42
2018-03-15T10:23:27.447Z,1005.38
2018-03-15T10:24:36.280Z,1005.41
2018-03-15T10:25:45.112Z,1005.37
2018-03-15T10:26:53.944Z,1005.27
2018-03-15T10:28:02.776Z,1005.43
2018-03-15T10:29:11.609Z,1005.41
2018-03-15T10:30:20.447Z,1005.43
2018-03-15T10:31:30.433Z,1005.42
2018-03-15T10:32:39.316Z,1005.38
2018-03-15T10:33:48.149Z,1005.36
2018-03-15T10:34:56.984Z,1005.32
2018-03-15T10:36:05.817Z,1005.24
2018-03-15T10:37:15.398Z,1005.3
2018-03-15T10:38:25.641Z,1005.31
2018-03-15T10:39:34.759Z,1005.3
2018-03-15T10:40:43.591Z,1005.39
2018-03-15T10:41:52.423Z,1005.3
2018-03-15T10:43:01.560Z,1005.23
2018-03-15T10:44:10.686Z,1005.17
2018-03-15T10:45:19.517Z,1005.17
2018-03-15T10:46:28.350Z,1005.22
2018-03-15T10:47:37.747Z,1005.17
2018-03-15T10:48:46.578Z,1005.21
2018-03-15T10:49:55.662Z,1005.15
2018-03-15T10:51:04.495Z,1005.14
2018-03-15T10:52:13.330Z,1005.35
2018-03-15T10:53:22.212Z,1005.19
2018-03-15T10:54:31.051Z,1005.16
2018-03-15T10:55:39.886Z,1005.21
2018-03-15T10:56:49.021Z,1005.18
2018-03-15T10:57:57.914Z,1005.17
2018-03-15T10:59:06.687Z,1005.14
2018-03-15T11:00:15.523Z,1005.15
2018-03-15T11:01:24.555Z,1005.13
2018-03-15T11:02:33.389Z,1005.07
2018-03-15T11:03:42.224Z,1005.12
2018-03-15T11:04:51.060Z,1005.11
2018-03-15T11:05:59.894Z,1005.13
2018-03-15T11:07:08.731Z,1005.11
2018-03-15T11:08:17.564Z,1005.17
2018-03-15T11:09:26.397Z,1005.09
2018-03-15T11:10:35.233Z,1005.13
2018-03-15T11:11:44.064Z,1005.1
2018-03-15T11:12:52.925Z,1005.13
2018-03-15T11:14:01.732Z,1005.16
2018-03-15T11:15:10.564Z,1005.13
2018-03-15T11:16:19.399Z,1005.03
2018-03-15T11:17:28.230Z,1005.03
2018-03-15T11:18:37.063Z,1004.99
2018-03-15T11:19:45.902Z,1005.02
2018-03-15T11:20:54.735Z,1005.11
2018-03-15T11:22:03.570Z,1004.94
2018-03-15T11:23:13.289Z,1004.97
2018-03-15T11:24:22.273Z,1004.99
2018-03-15T11:25:31.106Z,1004.92
2018-03-15T11:26:39.943Z,1005
2018-03-15T11:27:48.779Z,1004.87
2018-03-15T11:28:57.610Z,1004.93
2018-03-15T11:30:06.765Z,1004.85
2018-03-15T11:31:15.576Z,1004.85
2018-03-15T11:32:24.409Z,1004.81
2018-03-15T11:33:33.242Z,1004.89
2018-03-15T11:34:42.076Z,1004.81
2018-03-15T11:35:51.060Z,1004.78
2018-03-15T11:36:59.894Z,1004.8
2018-03-15T11:38:08.730Z,1004.82
2018-03-15T11:39:17.562Z,1004.9
2018-03-15T11:40:26.702Z,1004.78
2018-03-15T11:41:35.636Z,1004.68
2018-03-15T11:42:44.470Z,1004.65
2018-03-15T11:43:53.302Z,1004.53
2018-03-15T11:45:02.137Z,1004.63
2018-03-15T11:46:10.972Z,1004.63
2018-03-15T11:47:19.959Z,1004.6
2018-03-15T11:48:30.005Z,1004.62
2018-03-15T11:49:38.834Z,1004.66
2018-03-15T11:50:47.669Z,1004.72
2018-03-15T11:51:56.507Z,1004.67
2018-03-15T11:53:05.392Z,1004.68
2018-03-15T11:54:14.285Z,1004.63
2018-03-15T11:55:23.123Z,1004.59
2018-03-15T11:56:32.198Z,1004.6
2018-03-15T11:57:41.123Z,1004.68
2018-03-15T11:58:50.481Z,1004.63
2018-03-15T11:59:59.617Z,1004.55
2018-03-15T12:01:09.371Z,1004.61
2018-03-15T12:02:18.510Z,1004.59
2018-03-15T12:03:27.694Z,1004.63
2018-03-15T12:04:37.095Z,1004.56
2018-03-15T12:05:46.387Z,1004.54
2018-03-15T12:06:55.622Z,1004.51
2018-03-15T12:08:04.482Z,1004.48
2018-03-15T12:09:13.338Z,1004.41
2018-03-15T12:10:22.341Z,1004.43
2018-03-15T12:11:31.663Z,1004.42
2018-03-15T12:12:40.524Z,1004.38
2018-03-15T12:13:49.508Z,1004.43
2018-03-15T12:14:58.907Z,1004.38
2018-03-15T12:16:08.349Z,1004.36
2018-03-15T12:17:17.462Z,1004.31
2018-03-15T12:18:26.284Z,1004.38
2018-03-15T12:19:35.429Z,1004.33
2018-03-15T12:20:44.271Z,1004.33
2018-03-15T12:21:53.634Z,1004.33
2018-03-15T12:23:02.471Z,1004.28
2018-03-15T12:24:11.535Z,1004.29
2018-03-15T12:25:20.886Z,1004.2
2018-03-15T12:26:29.785Z,1004.22
2018-03-15T12:27:38.669Z,1004.16
2018-03-15T12:28:47.520Z,1004.16
2018-03-15T12:29:57.002Z,1004.11
2018-03-15T12:31:06.164Z,1004.12
2018-03-15T12:32:15.329Z,1004.1
2018-03-15T12:33:24.236Z,1004.07
2018-03-15T12:34:33.541Z,1004
2018-03-15T12:35:42.644Z,1003.97
2018-03-15T12:36:51.739Z,1004
2018-03-15T12:38:01.180Z,1003.93
2018-03-15T12:39:10.113Z,1003.99
2018-03-15T12:40:18.976Z,1003.87
2018-03-15T12:41:28.175Z,1003.83
2018-03-15T12:42:37.699Z,1003.79
2018-03-15T12:43:46.829Z,1003.83
2018-03-15T12:44:56.054Z,1003.8
2018-03-15T12:46:05.120Z,1003.82
2018-03-15T12:47:14.167Z,1003.74
2018-03-15T12:48:23.570Z,1003.8
2018-03-15T12:49:32.679Z,1003.68
2018-03-15T12:50:41.804Z,1003.71
2018-03-15T12:51:50.912Z,1003.71
2018-03-15T12:52:59.748Z,1003.66
2018-03-15T12:54:08.583Z,1003.72
2018-03-15T12:55:17.415Z,1003.67
2018-03-15T12:56:26.401Z,1003.6
2018-03-15T12:57:35.237Z,1003.56
2018-03-15T12:58:44.350Z,1003.54
2018-03-15T12:59:53.188Z,1003.61
2018-03-15T13:01:02.030Z,1003.51
2018-03-15T13:02:10.919Z,1003.55
2018-03-15T13:03:19.745Z,1003.56
2018-03-15T13:04:28.581Z,1003.58
2018-03-15T13:05:37.459Z,1003.58
2018-03-15T13:06:46.254Z,1003.46
2018-03-15T13:07:55.241Z,1003.48
2018-03-15T13:09:04.090Z,1003.53
2018-03-15T13:10:12.925Z,1003.58
2018-03-15T13:11:21.762Z,1003.54
2018-03-15T13:12:30.599Z,1003.47
2018-03-15T13:13:39.537Z,1003.46
2018-03-15T13:14:48.373Z,1003.51
2018-03-15T13:15:57.212Z,1003.45
2018-03-15T13:17:06.050Z,1003.46
2018-03-15T13:18:14.888Z,1003.53
2018-03-15T13:19:23.874Z,1003.5
2018-03-15T13:20:32.713Z,1003.43
2018-03-15T13:21:41.553Z,1003.55
2018-03-15T13:22:50.400Z,1003.43
2018-03-15T13:23:59.517Z,1003.41
2018-03-15T13:25:08.350Z,1003.41
2018-03-15T13:26:17.464Z,1003.47
2018-03-15T13:27:26.575Z,1003.39
2018-03-15T13:28:35.414Z,1003.33
2018-03-15T13:29:44.348Z,1003.42
2018-03-15T13:30:53.186Z,1003.33
2018-03-15T13:32:02.022Z,1003.36
2018-03-15T13:33:10.860Z,1003.37
2018-03-15T13:34:19.743Z,1003.34
2018-03-15T13:35:28.541Z,1003.22
2018-03-15T13:36:37.375Z,1003.34
2018-03-15T13:37:46.212Z,1003.32
2018-03-15T13:38:55.047Z,1003.29
2018-03-15T13:40:04.460Z,1003.3
2018-03-15T13:41:13.570Z,1003.34
2018-03-15T13:42:22.406Z,1003.21
2018-03-15T13:43:31.242Z,1003.18
2018-03-15T13:44:40.083Z,1003.07
2018-03-15T13:45:48.963Z,1003.11
2018-03-15T13:46:57.799Z,1003.07
2018-03-15T13:48:06.637Z,1003.05
2018-03-15T13:49:15.479Z,1003.04
2018-03-15T13:50:24.315Z,1003.05
2018-03-15T13:51:33.151Z,1003.07
2018-03-15T13:52:41.990Z,1003.05
2018-03-15T13:53:50.827Z,1003.06
2018-03-15T13:54:59.664Z,1002.99
2018-03-15T13:56:08.500Z,1002.97
2018-03-15T13:57:17.339Z,1003.04